createdAt,value
2019-02-22T00:00:42.675Z,12.41
2019-02-22T00:03:16.294Z,12.40
2019-02-22T00:05:49.742Z,12.30
2019-02-22T00:08:23.233Z,12.34
2019-02-22T00:10:56.947Z,12.25
2019-02-22T00:13:30.544Z,12.32
2019-02-22T00:16:03.996Z,12.36
2019-02-22T00:18:37.384Z,12.47
2019-02-22T00:21:10.820Z,12.48
2019-02-22T00:23:44.306Z,12.34
2019-02-22T00:26:17.836Z,12.41
2019-02-22T00:28:51.431Z,12.50
2019-02-22T00:31:24.850Z,12.41
2019-02-22T00:33:58.572Z,12.48
2019-02-22T00:36:32.091Z,12.45
2019-02-22T00:39:05.611Z,12.52
2019-02-22T00:41:39.079Z,12.53
2019-02-22T00:44:12.511Z,12.50
2019-02-22T00:46:46.037Z,12.52
2019-02-22T00:49:19.709Z,12.51
2019-02-22T00:51:53.109Z,12.43
2019-02-22T00:54:26.625Z,12.52
2019-02-22T00:57:00.038Z,12.45
2019-02-22T00:59:33.659Z,12.49
2019-02-22T01:02:07.127Z,12.44
2019-02-22T01:04:40.574Z,12.34
2019-02-22T01:07:14.025Z,12.45
2019-02-22T01:09:47.539Z,12.38
2019-02-22T01:12:20.935Z,12.28
2019-02-22T01:14:54.567Z,12.44
2019-02-22T01:17:28.132Z,12.44
2019-02-22T01:20:01.677Z,12.50
2019-02-22T01:22:35.127Z,12.50
2019-02-22T01:25:08.656Z,12.49
2019-02-22T01:27:42.107Z,12.35
2019-02-22T01:30:15.562Z,12.37
2019-02-22T01:32:49.017Z,12.31
2019-02-22T01:35:22.622Z,12.34
2019-02-22T01:37:56.199Z,12.40
2019-02-22T01:40:29.680Z,12.44
2019-02-22T01:43:03.226Z,12.47
2019-02-22T01:45:36.704Z,12.43
2019-02-22T01:48:10.119Z,12.34
2019-02-22T01:50:43.608Z,12.39
2019-02-22T01:53:17.084Z,12.40
2019-02-22T01:55:50.566Z,12.28
2019-02-22T01:58:24.120Z,12.37
2019-02-22T02:00:57.536Z,12.32
2019-02-22T02:03:31.031Z,12.35
2019-02-22T02:06:04.504Z,12.15
2019-02-22T02:08:38.113Z,12.20
2019-02-22T02:11:11.550Z,12.17
2019-02-22T02:13:45.073Z,12.17
2019-02-22T02:16:18.559Z,12.12
2019-02-22T02:18:52.090Z,12.08
2019-02-22T02:21:25.627Z,12.06
2019-02-22T02:23:59.299Z,12.03
2019-02-22T02:26:32.682Z,12.02
2019-02-22T02:29:06.155Z,12.05
2019-02-22T02:31:39.675Z,12.02
2019-02-22T02:34:13.168Z,12.09
2019-02-22T02:36:46.728Z,12.15
2019-02-22T02:39:20.301Z,12.26
2019-02-22T02:41:53.716Z,12.28
2019-02-22T02:44:27.226Z,12.20
2019-02-22T02:47:00.805Z,12.20
2019-02-22T02:49:34.169Z,12.24
2019-02-22T02:52:07.761Z,12.21
2019-02-22T02:54:41.259Z,12.21
2019-02-22T02:57:14.665Z,12.23
2019-02-22T02:59:48.181Z,12.14
2019-02-22T03:02:23.249Z,12.12
2019-02-22T03:04:56.643Z,12.14
2019-02-22T03:07:40.737Z,12.15
2019-02-22T03:10:14.179Z,12.18
2019-02-22T03:12:47.576Z,12.19
2019-02-22T03:15:21.015Z,12.24
2019-02-22T03:17:54.651Z,12.21
2019-02-22T03:20:28.200Z,12.15
2019-02-22T03:23:01.632Z,12.22
2019-02-22T03:25:35.071Z,12.19
2019-02-22T03:28:08.417Z,12.16
2019-02-22T03:30:41.829Z,12.16
2019-02-22T03:33:15.155Z,12.17
2019-02-22T03:35:48.625Z,12.23
2019-02-22T03:38:22.038Z,12.22
2019-02-22T03:40:55.472Z,12.25
2019-02-22T03:43:28.942Z,12.17
2019-02-22T03:46:02.295Z,12.16
2019-02-22T03:48:35.703Z,12.17
2019-02-22T03:51:09.272Z,12.14
2019-02-22T03:53:44.515Z,12.15
2019-02-22T03:56:17.921Z,12.15
2019-02-22T03:58:51.625Z,12.07
2019-02-22T04:01:25.037Z,12.08
2019-02-22T04:03:58.534Z,12.04
2019-02-22T04:06:32.213Z,12.05
2019-02-22T04:09:08.769Z,12.05
2019-02-22T04:11:45.644Z,12.04
2019-02-22T04:14:17.333Z,12.06
2019-02-22T04:16:50.695Z,12.04
2019-02-22T04:19:24.113Z,12.10
2019-02-22T04:21:57.465Z,12.08
2019-02-22T04:24:30.963Z,12.11
2019-02-22T04:27:04.400Z,12.14
2019-02-22T04:29:37.754Z,12.13
2019-02-22T04:32:11.150Z,12.14
2019-02-22T04:34:44.615Z,12.12
2019-02-22T04:37:18.001Z,12.13
2019-02-22T04:39:51.375Z,12.10
2019-02-22T04:42:24.787Z,12.11
2019-02-22T04:44:58.233Z,12.11
2019-02-22T04:47:31.688Z,12.02
2019-02-22T04:50:06.385Z,12.02
2019-02-22T04:52:39.754Z,12.11
2019-02-22T04:55:13.253Z,12.15
2019-02-22T04:57:46.679Z,12.20
2019-02-22T05:00:20.104Z,12.19
2019-02-22T05:02:53.494Z,12.17
2019-02-22T05:05:27.043Z,12.15
2019-02-22T05:08:00.406Z,12.19
2019-02-22T05:10:34.296Z,12.21
2019-02-22T05:13:07.766Z,12.20
2019-02-22T05:15:41.243Z,12.15
2019-02-22T05:18:14.662Z,12.16
2019-02-22T05:20:48.215Z,12.14
2019-02-22T05:23:21.582Z,12.15
2019-02-22T05:25:54.953Z,12.14
2019-02-22T05:28:28.300Z,12.08
2019-02-22T05:31:01.901Z,12.09
2019-02-22T05:33:35.320Z,12.10
2019-02-22T05:36:08.700Z,12.14
2019-02-22T05:38:42.136Z,12.14
2019-02-22T05:41:15.538Z,12.15
2019-02-22T05:43:49.048Z,12.15
2019-02-22T05:46:22.791Z,12.14
2019-02-22T05:48:56.293Z,12.18
2019-02-22T05:51:29.801Z,12.11
2019-02-22T05:54:03.283Z,12.03
2019-02-22T05:56:36.729Z,12.06
2019-02-22T05:59:10.140Z,12.08
2019-02-22T06:01:43.670Z,12.11
2019-02-22T06:04:17.066Z,12.08
2019-02-22T06:06:50.548Z,12.06
2019-02-22T06:09:23.938Z,12.06
2019-02-22T06:11:57.389Z,12.06
2019-02-22T06:14:30.851Z,12.06
2019-02-22T06:17:14.247Z,12.06
2019-02-22T06:19:39.407Z,12.03
2019-02-22T06:22:12.848Z,12.00
2019-02-22T06:24:46.279Z,11.94
2019-02-22T06:27:19.744Z,11.86
2019-02-22T06:29:53.154Z,11.81
2019-02-22T06:32:26.611Z,11.71
2019-02-22T06:34:59.963Z,11.64
2019-02-22T06:37:33.461Z,11.65
2019-02-22T06:40:09.170Z,11.69
2019-02-22T06:42:45.677Z,11.67
2019-02-22T06:45:17.750Z,11.57
2019-02-22T06:47:51.591Z,11.51
2019-02-22T06:50:33.335Z,11.53
2019-02-22T06:53:00.080Z,11.52
2019-02-22T06:55:33.551Z,11.56
2019-02-22T06:58:07.020Z,11.47
2019-02-22T07:00:40.481Z,11.55
2019-02-22T07:03:13.997Z,11.43
2019-02-22T07:05:47.479Z,11.49
2019-02-22T07:08:20.876Z,11.51
2019-02-22T07:10:58.873Z,11.55
2019-02-22T07:13:32.269Z,11.32
2019-02-22T07:16:05.730Z,11.06
2019-02-22T07:18:39.064Z,11.22
2019-02-22T07:21:12.513Z,11.23
2019-02-22T07:23:45.924Z,11.29
2019-02-22T07:26:19.451Z,11.38
2019-02-22T07:28:52.849Z,11.13
2019-02-22T07:31:26.454Z,11.21
2019-02-22T07:33:59.861Z,11.22
2019-02-22T07:36:33.317Z,11.24
2019-02-22T07:39:07.276Z,11.17
2019-02-22T07:41:40.726Z,10.95
2019-02-22T07:44:14.192Z,11.01
2019-02-22T07:46:47.692Z,11.16
2019-02-22T07:49:26.190Z,11.17
2019-02-22T07:51:59.660Z,11.19
2019-02-22T07:54:33.082Z,11.24
2019-02-22T07:57:06.625Z,11.27
2019-02-22T07:59:40.067Z,11.13
2019-02-22T08:02:13.495Z,11.07
2019-02-22T08:04:47.128Z,10.82
2019-02-22T08:07:20.670Z,10.77
2019-02-22T08:09:54.015Z,10.59
2019-02-22T08:12:27.540Z,10.53
2019-02-22T08:15:00.950Z,10.46
2019-02-22T08:17:34.387Z,10.32
2019-02-22T08:20:08.945Z,10.33
2019-02-22T08:22:42.437Z,10.16
2019-02-22T08:25:15.900Z,10.03
2019-02-22T08:27:53.870Z,10.12
2019-02-22T08:30:24.469Z,10.08
2019-02-22T08:32:57.902Z,10.07
2019-02-22T08:35:31.598Z,9.77
2019-02-22T08:38:05.165Z,9.45
2019-02-22T08:40:38.598Z,9.71
2019-02-22T08:43:12.023Z,9.68
2019-02-22T08:45:45.364Z,9.54
2019-02-22T08:48:18.888Z,9.42
2019-02-22T08:50:52.224Z,9.35
2019-02-22T08:53:25.581Z,9.49
2019-02-22T08:55:58.967Z,9.28
2019-02-22T08:58:32.370Z,9.38
2019-02-22T09:01:05.763Z,9.16
2019-02-22T09:03:49.666Z,8.67
2019-02-22T09:06:14.197Z,8.59
2019-02-22T09:08:47.907Z,8.74
2019-02-22T09:11:21.235Z,8.80
2019-02-22T09:13:54.684Z,8.94
2019-02-22T09:16:28.190Z,8.94
2019-02-22T09:19:01.629Z,8.62
2019-02-22T09:21:35.077Z,8.70
2019-02-22T09:24:08.556Z,8.44
2019-02-22T09:26:41.983Z,8.51
2019-02-22T09:29:15.401Z,8.37
2019-02-22T09:31:48.876Z,8.27
2019-02-22T09:34:22.313Z,8.02
2019-02-22T09:36:55.633Z,7.56
2019-02-22T09:39:29.180Z,7.44
2019-02-22T09:42:02.810Z,7.56
2019-02-22T09:44:36.432Z,7.61
2019-02-22T09:47:10.068Z,7.60
2019-02-22T09:49:43.430Z,7.66
2019-02-22T09:52:17.036Z,7.97
2019-02-22T09:54:50.528Z,7.72
2019-02-22T09:57:23.931Z,7.65
2019-02-22T09:59:57.407Z,7.86
2019-02-22T10:02:30.799Z,7.96
2019-02-22T10:05:05.555Z,7.78
2019-02-22T10:07:38.999Z,7.99
2019-02-22T10:10:12.932Z,7.99
2019-02-22T10:12:46.254Z,7.59
2019-02-22T10:15:19.787Z,7.47
2019-02-22T10:17:53.197Z,7.77
2019-02-22T10:20:26.620Z,7.64
2019-02-22T10:22:59.982Z,7.65
2019-02-22T10:25:33.340Z,7.95
2019-02-22T10:28:16.991Z,8.01
2019-02-22T10:30:41.842Z,8.06
2019-02-22T10:33:15.299Z,8.36
2019-02-22T10:35:48.636Z,8.40
2019-02-22T10:38:22.055Z,7.67
2019-02-22T10:40:55.657Z,7.52
2019-02-22T10:43:29.263Z,7.43
2019-02-22T10:46:02.731Z,7.31
2019-02-22T10:48:36.080Z,6.91
2019-02-22T10:51:10.575Z,7.45
2019-02-22T10:53:43.967Z,7.55
2019-02-22T10:56:17.443Z,7.55
2019-02-22T10:58:50.843Z,7.69
2019-02-22T11:01:24.294Z,7.98
2019-02-22T11:03:57.738Z,8.59
2019-02-22T11:06:31.334Z,8.59
2019-02-22T11:09:07.662Z,8.94
2019-02-22T11:11:41.064Z,8.80
2019-02-22T11:14:14.542Z,8.71
2019-02-22T11:16:47.944Z,8.84
2019-02-22T11:19:21.461Z,8.72
2019-02-22T11:21:54.886Z,8.53
2019-02-22T11:24:28.255Z,9.04
2019-02-22T11:27:01.654Z,9.43
2019-02-22T11:29:35.099Z,9.29
2019-02-22T11:32:08.596Z,9.17
2019-02-22T11:34:42.228Z,9.24
2019-02-22T11:37:15.695Z,9.03
2019-02-22T11:39:49.178Z,9.25
2019-02-22T11:42:22.550Z,9.22
2019-02-22T11:44:56.039Z,10.11
2019-02-22T11:47:29.464Z,10.25
2019-02-22T11:50:02.925Z,10.88
2019-02-22T11:52:36.294Z,11.96
2019-02-22T11:55:11.369Z,11.21
2019-02-22T11:57:45.101Z,10.75
2019-02-22T12:00:20.697Z,10.75
2019-02-22T12:02:54.219Z,11.14
2019-02-22T12:05:27.715Z,11.32
2019-02-22T12:08:03.522Z,11.41
2019-02-22T12:10:36.580Z,11.08
2019-02-22T12:13:10.045Z,11.53
2019-02-22T12:15:43.442Z,11.62
2019-02-22T12:18:17.039Z,11.02
2019-02-22T12:20:50.616Z,11.65
2019-02-22T12:23:23.984Z,12.44
2019-02-22T12:25:57.367Z,13.47
2019-02-22T12:28:30.762Z,13.74
2019-02-22T12:31:04.578Z,12.89
2019-02-22T12:33:38.019Z,14.37
2019-02-22T12:36:11.425Z,14.83
2019-02-22T12:38:44.921Z,15.31
2019-02-22T12:41:18.322Z,14.50
2019-02-22T12:43:51.741Z,13.18
2019-02-22T12:46:25.238Z,12.93
2019-02-22T12:48:58.627Z,13.00
2019-02-22T12:51:32.250Z,12.22
2019-02-22T12:54:05.619Z,11.70
2019-02-22T12:56:56.530Z,11.66
2019-02-22T12:59:14.280Z,11.58
2019-02-22T13:01:47.772Z,11.66
2019-02-22T13:04:21.318Z,10.96
2019-02-22T13:06:54.803Z,10.59
2019-02-22T13:09:36.177Z,10.91
2019-02-22T13:12:13.398Z,10.90
2019-02-22T13:14:38.500Z,10.83
2019-02-22T13:17:11.838Z,10.55
2019-02-22T13:19:45.266Z,10.62
2019-02-22T13:22:18.600Z,10.69
2019-02-22T13:24:52.101Z,10.55
2019-02-22T13:27:25.561Z,10.69
2019-02-22T13:29:59.456Z,10.66
2019-02-22T13:32:32.830Z,10.72
2019-02-22T13:35:06.261Z,10.35
2019-02-22T13:37:39.660Z,10.40
2019-02-22T13:40:15.239Z,10.55
2019-02-22T13:42:48.652Z,10.19
2019-02-22T13:45:26.812Z,10.17
2019-02-22T13:47:57.524Z,10.47
2019-02-22T13:50:31.098Z,10.42
2019-02-22T13:53:04.573Z,10.57
2019-02-22T13:55:37.953Z,10.46
2019-02-22T13:58:11.419Z,10.40
2019-02-22T14:00:44.853Z,10.24
2019-02-22T14:03:18.471Z,10.18
2019-02-22T14:05:51.882Z,10.23
2019-02-22T14:08:25.284Z,10.27
2019-02-22T14:10:58.651Z,10.18
2019-02-22T14:13:32.113Z,10.08
2019-02-22T14:16:05.648Z,10.03
2019-02-22T14:18:39.164Z,10.23
2019-02-22T14:21:12.712Z,10.12
2019-02-22T14:23:46.272Z,9.75
2019-02-22T14:26:19.645Z,9.91
2019-02-22T14:28:53.051Z,10.08
2019-02-22T14:31:26.489Z,9.84
2019-02-22T14:33:59.984Z,9.78
2019-02-22T14:36:33.466Z,9.62
2019-02-22T14:39:08.184Z,9.81
2019-02-22T14:41:41.574Z,9.67
2019-02-22T14:44:14.978Z,9.54
2019-02-22T14:46:48.545Z,9.48
2019-02-22T14:49:21.986Z,9.50
2019-02-22T14:51:55.398Z,9.28
2019-02-22T14:54:28.811Z,9.20
2019-02-22T14:57:02.342Z,9.25
2019-02-22T14:59:35.782Z,9.25
2019-02-22T15:02:09.188Z,9.21
2019-02-22T15:04:42.557Z,9.05
2019-02-22T15:07:18.998Z,9.05
2019-02-22T15:09:52.391Z,9.05
2019-02-22T15:12:25.808Z,8.96
2019-02-22T15:14:59.346Z,8.94
2019-02-22T15:17:34.588Z,8.90
2019-02-22T15:20:09.093Z,8.62
2019-02-22T15:22:42.480Z,8.71
2019-02-22T15:25:17.331Z,8.72
2019-02-22T15:27:50.754Z,8.56
2019-02-22T15:30:24.257Z,8.69
2019-02-22T15:32:57.609Z,8.73
2019-02-22T15:35:31.178Z,8.66
2019-02-22T15:38:04.691Z,8.51
2019-02-22T15:40:39.365Z,8.40
2019-02-22T15:43:13.204Z,8.55
2019-02-22T15:45:47.487Z,8.59
2019-02-22T15:48:21.150Z,8.55
2019-02-22T15:50:54.539Z,8.52
2019-02-22T15:53:27.994Z,8.47
2019-02-22T15:56:01.367Z,8.39
2019-02-22T15:58:34.788Z,8.42
2019-02-22T16:01:08.247Z,8.33
2019-02-22T16:03:49.109Z,8.08
2019-02-22T16:06:22.532Z,8.18
2019-02-22T16:08:56.053Z,8.12
2019-02-22T16:11:29.647Z,8.04
2019-02-22T16:14:03.045Z,7.89
2019-02-22T16:16:36.496Z,7.80
2019-02-22T16:19:09.919Z,7.80
2019-02-22T16:21:43.362Z,7.77
2019-02-22T16:24:16.692Z,7.77
2019-02-22T16:26:51.692Z,7.76
2019-02-22T16:29:25.200Z,7.77
2019-02-22T16:31:58.787Z,7.73
2019-02-22T16:34:42.882Z,7.67
2019-02-22T16:37:07.459Z,7.67
2019-02-22T16:39:40.830Z,7.64
2019-02-22T16:42:14.274Z,7.49
2019-02-22T16:44:47.594Z,7.39
2019-02-22T16:47:20.989Z,7.39
2019-02-22T16:49:54.359Z,7.37
2019-02-22T16:52:27.802Z,7.31
2019-02-22T16:55:01.238Z,7.32
2019-02-22T16:57:34.749Z,7.20
2019-02-22T17:00:10.764Z,7.20
2019-02-22T17:02:44.184Z,7.22
2019-02-22T17:05:17.784Z,7.17
2019-02-22T17:07:51.286Z,7.13
2019-02-22T17:10:24.676Z,7.09
2019-02-22T17:12:58.168Z,6.93
2019-02-22T17:15:31.683Z,6.93
2019-02-22T17:18:05.183Z,6.88
2019-02-22T17:20:38.568Z,6.73
2019-02-22T17:23:12.035Z,6.69
2019-02-22T17:25:45.545Z,6.62
2019-02-22T17:28:18.972Z,6.60
2019-02-22T17:30:52.326Z,6.57
2019-02-22T17:33:25.727Z,6.47
2019-02-22T17:35:59.198Z,6.38
2019-02-22T17:38:32.800Z,6.38
2019-02-22T17:41:06.228Z,6.40
2019-02-22T17:43:39.645Z,6.29
2019-02-22T17:46:13.048Z,6.21
2019-02-22T17:48:46.451Z,6.17
2019-02-22T17:51:19.825Z,6.13
2019-02-22T17:53:53.157Z,6.06
2019-02-22T17:56:26.534Z,5.95
2019-02-22T17:58:59.866Z,5.94
2019-02-22T18:01:33.265Z,5.90
2019-02-22T18:04:06.782Z,5.86
2019-02-22T18:06:40.440Z,5.85
2019-02-22T18:09:13.822Z,5.82
2019-02-22T18:11:47.183Z,5.80
2019-02-22T18:14:20.537Z,5.77
2019-02-22T18:16:54.008Z,5.71
2019-02-22T18:19:27.432Z,5.68
2019-02-22T18:22:00.924Z,5.67
2019-02-22T18:24:34.323Z,5.65
2019-02-22T18:27:07.852Z,5.59
2019-02-22T18:29:41.292Z,5.54
2019-02-22T18:32:14.661Z,5.55
2019-02-22T18:34:47.983Z,5.54
2019-02-22T18:37:21.568Z,5.48
2019-02-22T18:39:55.130Z,5.36
2019-02-22T18:42:29.141Z,5.23
2019-02-22T18:45:02.613Z,5.29
2019-02-22T18:47:36.060Z,5.31
2019-02-22T18:50:11.019Z,5.31
2019-02-22T18:52:44.571Z,5.29
2019-02-22T18:55:18.454Z,5.26
2019-02-22T18:57:51.929Z,5.25
2019-02-22T19:00:25.474Z,5.23
2019-02-22T19:02:59.591Z,5.23
2019-02-22T19:05:33.075Z,5.20
2019-02-22T19:08:06.627Z,5.15
2019-02-22T19:10:40.186Z,5.11
2019-02-22T19:13:13.554Z,5.09
2019-02-22T19:15:47.090Z,5.07
2019-02-22T19:18:20.666Z,5.05
2019-02-22T19:20:54.078Z,5.01
2019-02-22T19:23:27.682Z,4.98
2019-02-22T19:26:01.132Z,4.95
2019-02-22T19:28:34.499Z,4.90
2019-02-22T19:31:07.920Z,4.87
2019-02-22T19:33:41.265Z,4.84
2019-02-22T19:36:14.634Z,4.77
2019-02-22T19:38:48.142Z,4.71
2019-02-22T19:41:21.603Z,4.64
2019-02-22T19:43:54.926Z,4.63
2019-02-22T19:46:28.506Z,4.60
2019-02-22T19:49:02.081Z,4.55
2019-02-22T19:51:35.604Z,4.51
2019-02-22T19:54:09.341Z,4.48
2019-02-22T19:56:42.934Z,4.42
2019-02-22T19:59:16.486Z,4.36
2019-02-22T20:01:50.008Z,4.32
2019-02-22T20:04:23.572Z,4.27
2019-02-22T20:06:57.175Z,4.24
2019-02-22T20:09:30.684Z,4.17
2019-02-22T20:12:04.341Z,4.06
2019-02-22T20:14:37.733Z,3.94
2019-02-22T20:17:11.203Z,3.86
2019-02-22T20:19:44.943Z,3.89
2019-02-22T20:22:18.695Z,3.90
2019-02-22T20:24:52.381Z,3.92
2019-02-22T20:27:26.166Z,3.92
2019-02-22T20:29:59.877Z,3.87
2019-02-22T20:32:33.697Z,3.82
2019-02-22T20:35:22.449Z,3.71
2019-02-22T20:37:56.054Z,3.56
2019-02-22T20:40:29.565Z,3.51
2019-02-22T20:43:03.149Z,3.50
2019-02-22T20:45:36.749Z,3.57
2019-02-22T20:48:10.320Z,3.61
2019-02-22T20:50:43.856Z,3.65
2019-02-22T20:53:17.536Z,3.66
2019-02-22T20:55:51.321Z,3.67
2019-02-22T20:58:24.980Z,3.70
2019-02-22T21:00:58.657Z,3.72
2019-02-22T21:03:32.188Z,3.72
2019-02-22T21:06:05.650Z,3.72
2019-02-22T21:08:39.437Z,3.70
2019-02-22T21:11:13.032Z,3.70
2019-02-22T21:13:46.557Z,3.68
2019-02-22T21:16:20.216Z,3.68
2019-02-22T21:18:54.376Z,3.66
2019-02-22T21:21:28.085Z,3.55
2019-02-22T21:24:02.057Z,3.50
2019-02-22T21:26:35.763Z,3.37
2019-02-22T21:29:09.377Z,3.33
2019-02-22T21:31:43.212Z,3.37
2019-02-22T21:34:17.082Z,3.39
2019-02-22T21:36:50.777Z,3.40
2019-02-22T21:39:25.674Z,3.43
2019-02-22T21:41:59.280Z,3.41
2019-02-22T21:44:32.925Z,3.37
2019-02-22T21:47:06.597Z,3.36
2019-02-22T21:49:40.132Z,3.32
2019-02-22T21:52:13.722Z,3.29
2019-02-22T21:54:47.330Z,3.32
2019-02-22T21:57:22.593Z,3.31
2019-02-22T21:59:56.337Z,3.30
2019-02-22T22:02:29.929Z,3.32
2019-02-22T22:05:11.697Z,3.31
2019-02-22T22:07:45.327Z,3.30
2019-02-22T22:10:18.954Z,3.25
2019-02-22T22:12:52.714Z,3.26
2019-02-22T22:15:26.361Z,3.24
2019-02-22T22:17:59.900Z,3.27
2019-02-22T22:20:33.573Z,3.28
2019-02-22T22:23:07.394Z,3.29
2019-02-22T22:25:41.177Z,3.27
2019-02-22T22:28:15.037Z,3.29
2019-02-22T22:30:48.734Z,3.27
2019-02-22T22:33:23.124Z,3.26
2019-02-22T22:35:56.712Z,3.26
2019-02-22T22:38:30.354Z,3.22
2019-02-22T22:41:04.044Z,3.23
2019-02-22T22:43:37.910Z,3.24
2019-02-22T22:46:11.526Z,3.16
2019-02-22T22:48:50.311Z,3.04
2019-02-22T22:51:20.588Z,3.08
2019-02-22T22:53:54.178Z,3.15
2019-02-22T22:56:27.888Z,3.17
2019-02-22T22:59:01.406Z,3.20
2019-02-22T23:01:35.173Z,3.18
2019-02-22T23:04:08.905Z,3.11
2019-02-22T23:06:42.577Z,3.08
2019-02-22T23:09:21.137Z,3.06
2019-02-22T23:11:55.378Z,2.90
2019-02-22T23:14:28.967Z,2.89
2019-02-22T23:17:02.513Z,2.98
2019-02-22T23:19:36.516Z,3.03
2019-02-22T23:22:10.276Z,3.03
2019-02-22T23:24:43.901Z,3.03
2019-02-22T23:27:17.437Z,3.06
2019-02-22T23:29:50.928Z,3.06
2019-02-22T23:32:24.329Z,3.09
2019-02-22T23:34:57.782Z,3.09
2019-02-22T23:37:31.466Z,3.05
2019-02-22T23:40:05.787Z,3.05
2019-02-22T23:42:39.295Z,3.05
2019-02-22T23:45:12.851Z,3.04
2019-02-22T23:47:46.442Z,3.07
2019-02-22T23:50:20.354Z,3.06
2019-02-22T23:52:53.982Z,3.04
2019-02-22T23:55:27.754Z,3.03
2019-02-22T23:58:01.395Z,3.02
